Time;durP1;ratioP1;P1;durP2;ratioP2;P2;SDS_P1;SDS_P2;PMS_P1;PMS_P2;Temp;Humidity;BMP_temperature;BMP_pressure;BME280_temperature;BME280_humidity;BME280_pressure;Samples;Min_cycle;Max_cycle;Signal;HPM_P1;HPM_P2
2023/08/19 00:01:54;;;;;;;5.93;4.60;;;;;;;;;;5024830;28;20232;-62
2023/08/19 00:04:22;;;;;;;6.82;4.70;;;;;;;;;;5021366;28;20196;-61
2023/08/19 00:06:49;;;;;;;5.00;4.43;;;;;;;;;;5025147;28;20197;-63
2023/08/19 00:09:17;;;;;;;6.93;4.55;;;;;;;;;;5018686;28;20216;-61
2023/08/19 00:11:44;;;;;;;5.53;4.28;;;;;;;;;;5021185;28;20196;-61
2023/08/19 00:14:11;;;;;;;6.43;4.30;;;;;;;;;;5021779;28;20207;-62
2023/08/19 00:16:38;;;;;;;5.50;4.55;;;;;;;;;;5022528;28;20421;-61
2023/08/19 00:19:05;;;;;;;5.63;4.30;;;;;;;;;;5020066;28;20208;-63
2023/08/19 00:21:34;;;;;;;5.32;4.50;;;;;;;;;;5020356;28;20201;-62
2023/08/19 00:24:01;;;;;;;4.50;4.10;;;;;;;;;;5022535;28;20235;-63
2023/08/19 00:26:29;;;;;;;5.75;4.05;;;;;;;;;;5024661;28;20200;-62
2023/08/19 00:28:56;;;;;;;6.30;4.22;;;;;;;;;;5021860;28;20205;-61
2023/08/19 00:31:25;;;;;;;7.75;4.07;;;;;;;;;;5023776;28;20380;-61
2023/08/19 00:33:52;;;;;;;8.73;4.60;;;;;;;;;;5022765;28;20196;-65
2023/08/19 00:36:19;;;;;;;6.50;4.10;;;;;;;;;;5017407;28;20247;-66
2023/08/19 00:38:51;;;;;;;5.57;3.72;;;;;;;;;;5016597;28;20223;-66
2023/08/19 00:41:19;;;;;;;4.78;4.30;;;;;;;;;;5022834;28;20212;-66
2023/08/19 00:43:46;;;;;;;4.85;3.72;;;;;;;;;;5022182;28;20204;-66
2023/08/19 00:46:13;;;;;;;4.40;4.00;;;;;;;;;;5023425;28;20477;-66
2023/08/19 00:48:40;;;;;;;5.07;3.90;;;;;;;;;;5025904;28;20200;-66
2023/08/19 00:51:08;;;;;;;6.90;3.60;;;;;;;;;;5023546;28;20219;-66
2023/08/19 00:53:35;;;;;;;10.02;4.63;;;;;;;;;;5024178;28;20211;-66
2023/08/19 00:56:03;;;;;;;6.85;3.78;;;;;;;;;;5021009;28;20231;-66
2023/08/19 00:58:31;;;;;;;6.20;4.20;;;;;;;;;;5021999;28;20201;-66
2023/08/19 01:00:58;;;;;;;4.53;4.03;;;;;;;;;;5022379;28;20362;-66
2023/08/19 01:03:26;;;;;;;6.32;4.30;;;;;;;;;;5018256;28;20211;-65
2023/08/19 01:05:56;;;;;;;6.03;4.43;;;;;;;;;;5022079;28;20206;-66
2023/08/19 01:08:26;;;;;;;7.05;4.18;;;;;;;;;;5021028;28;20295;-66
2023/08/19 01:10:59;;;;;;;4.63;4.13;;;;;;;;;;5023699;28;20214;-66
2023/08/19 01:13:32;;;;;;;5.68;4.15;;;;;;;;;;5022781;28;20209;-66
2023/08/19 01:16:06;;;;;;;5.70;4.28;;;;;;;;;;5020333;28;20228;-66
2023/08/19 01:18:33;;;;;;;6.88;4.47;;;;;;;;;;5021024;28;20204;-66
2023/08/19 01:21:01;;;;;;;5.70;4.50;;;;;;;;;;5018399;28;20208;-66
2023/08/19 01:23:31;;;;;;;8.73;4.30;;;;;;;;;;5022828;28;20231;-66
2023/08/19 01:26:00;;;;;;;6.13;4.70;;;;;;;;;;5022848;28;20192;-66
2023/08/19 01:28:27;;;;;;;8.45;4.43;;;;;;;;;;5021079;28;20211;-65
2023/08/19 01:30:54;;;;;;;5.22;4.57;;;;;;;;;;5023595;28;20218;-65
2023/08/19 01:33:22;;;;;;;5.93;4.93;;;;;;;;;;5020932;28;20196;-66
2023/08/19 01:35:52;;;;;;;8.70;5.10;;;;;;;;;;5021955;28;20282;-66
2023/08/19 01:38:21;;;;;;;8.68;4.75;;;;;;;;;;5020296;28;20208;-67
2023/08/19 01:40:48;;;;;;;7.63;4.80;;;;;;;;;;5021376;28;20210;-65
2023/08/19 01:43:17;;;;;;;6.63;4.90;;;;;;;;;;5020889;28;20235;-66
2023/08/19 01:45:44;;;;;;;7.45;4.70;;;;;;;;;;5021208;28;20205;-65
2023/08/19 01:48:11;;;;;;;7.55;4.55;;;;;;;;;;5026483;28;20200;-66
2023/08/19 01:50:38;;;;;;;5.78;4.45;;;;;;;;;;5021829;28;20214;-66
2023/08/19 01:53:05;;;;;;;5.30;3.85;;;;;;;;;;5022414;28;20206;-66
2023/08/19 01:55:33;;;;;;;6.78;4.75;;;;;;;;;;5022555;28;20228;-66
2023/08/19 01:58:00;;;;;;;7.13;4.75;;;;;;;;;;5023310;28;20255;-66
2023/08/19 02:00:28;;;;;;;6.00;4.72;;;;;;;;;;5022180;28;20248;-66
2023/08/19 02:02:56;;;;;;;5.68;4.43;;;;;;;;;;5026842;28;20258;-66
2023/08/19 02:05:23;;;;;;;5.95;4.47;;;;;;;;;;5017889;28;20196;-66
2023/08/19 02:07:50;;;;;;;4.95;4.35;;;;;;;;;;5023168;28;20205;-66
2023/08/19 02:10:17;;;;;;;6.25;4.28;;;;;;;;;;5027370;28;20510;-66
2023/08/19 02:12:44;;;;;;;6.28;4.20;;;;;;;;;;5023662;28;20290;-66
2023/08/19 02:15:12;;;;;;;6.90;5.10;;;;;;;;;;5020246;28;20314;-66
2023/08/19 02:17:40;;;;;;;6.55;4.22;;;;;;;;;;5019737;28;20205;-66
2023/08/19 02:20:08;;;;;;;7.57;5.05;;;;;;;;;;5018860;28;20206;-66
2023/08/19 02:22:35;;;;;;;7.10;4.38;;;;;;;;;;5015143;28;20248;-66
2023/08/19 02:25:02;;;;;;;5.57;4.65;;;;;;;;;;5017593;28;20204;-66
2023/08/19 02:27:29;;;;;;;9.18;4.60;;;;;;;;;;5024081;28;20200;-66
2023/08/19 02:29:56;;;;;;;7.45;4.55;;;;;;;;;;5022726;28;20211;-66
2023/08/19 02:32:23;;;;;;;7.55;4.50;;;;;;;;;;5022558;28;20204;-66
2023/08/19 02:34:52;;;;;;;5.80;4.30;;;;;;;;;;5018251;28;20210;-66
2023/08/19 02:37:19;;;;;;;11.80;4.60;;;;;;;;;;5021345;28;20321;-66
2023/08/19 02:39:46;;;;;;;7.03;4.10;;;;;;;;;;5020676;28;20211;-65
2023/08/19 02:42:16;;;;;;;5.72;4.18;;;;;;;;;;5018715;28;20210;-66
2023/08/19 02:44:43;;;;;;;5.68;4.50;;;;;;;;;;5020457;28;20290;-66
2023/08/19 02:47:11;;;;;;;5.75;4.20;;;;;;;;;;5024299;28;20204;-66
2023/08/19 02:49:38;;;;;;;7.13;4.22;;;;;;;;;;5026697;28;20216;-66
2023/08/19 02:52:07;;;;;;;5.05;4.28;;;;;;;;;;5025084;28;20204;-66
2023/08/19 02:54:34;;;;;;;5.88;4.03;;;;;;;;;;5022981;28;20219;-66
2023/08/19 02:57:02;;;;;;;6.70;4.68;;;;;;;;;;5025007;28;20230;-66
2023/08/19 02:59:29;;;;;;;6.85;4.25;;;;;;;;;;5032760;28;20204;-67
2023/08/19 03:01:56;;;;;;;4.82;4.30;;;;;;;;;;5027108;28;20262;-66
2023/08/19 03:04:23;;;;;;;5.03;4.63;;;;;;;;;;5030655;28;20211;-67
2023/08/19 03:06:50;;;;;;;6.75;4.25;;;;;;;;;;5027041;28;20208;-66
2023/08/19 03:09:19;;;;;;;7.53;4.70;;;;;;;;;;5026185;28;20205;-66
2023/08/19 03:11:46;;;;;;;4.68;4.20;;;;;;;;;;5028029;28;20216;-66
2023/08/19 03:14:13;;;;;;;6.43;4.55;;;;;;;;;;5023056;28;20204;-65
2023/08/19 03:16:40;;;;;;;5.80;4.10;;;;;;;;;;5025664;28;20216;-66
2023/08/19 03:19:08;;;;;;;4.90;4.50;;;;;;;;;;5022136;28;20200;-66
2023/08/19 03:21:36;;;;;;;6.03;4.50;;;;;;;;;;5024430;28;20210;-67
2023/08/19 03:24:03;;;;;;;5.82;4.70;;;;;;;;;;5026581;28;20200;-66
2023/08/19 03:26:32;;;;;;;5.60;4.78;;;;;;;;;;5023420;28;20289;-67
2023/08/19 03:28:59;;;;;;;7.78;4.82;;;;;;;;;;5024844;28;20197;-66
2023/08/19 03:31:26;;;;;;;6.53;4.10;;;;;;;;;;5025135;28;20227;-67
2023/08/19 03:33:54;;;;;;;6.78;4.63;;;;;;;;;;5022301;28;20219;-66
2023/08/19 03:36:21;;;;;;;6.43;4.75;;;;;;;;;;5023362;28;20235;-66
2023/08/19 03:38:49;;;;;;;6.50;4.55;;;;;;;;;;5022532;28;20233;-66
2023/08/19 03:41:16;;;;;;;5.80;4.22;;;;;;;;;;5022979;28;20204;-66
2023/08/19 03:43:44;;;;;;;5.50;4.70;;;;;;;;;;5023543;28;20210;-65
2023/08/19 03:46:11;;;;;;;6.57;4.63;;;;;;;;;;5020928;28;20207;-67
2023/08/19 03:48:39;;;;;;;5.70;4.03;;;;;;;;;;5022707;28;20192;-66
2023/08/19 03:51:06;;;;;;;4.72;4.18;;;;;;;;;;5022908;28;20200;-66
2023/08/19 03:53:33;;;;;;;8.07;4.63;;;;;;;;;;5022042;28;20196;-66
2023/08/19 03:56:00;;;;;;;5.25;4.18;;;;;;;;;;5023115;28;20223;-66
2023/08/19 03:58:27;;;;;;;5.43;4.28;;;;;;;;;;5022154;28;20215;-67
2023/08/19 04:01:04;;;;;;;5.75;4.65;;;;;;;;;;5025986;28;20242;-66
2023/08/19 04:03:31;;;;;;;6.25;4.00;;;;;;;;;;5018586;28;20210;-62
2023/08/19 04:05:58;;;;;;;5.13;4.20;;;;;;;;;;5026338;28;20361;-62
2023/08/19 04:08:25;;;;;;;5.82;4.60;;;;;;;;;;5024888;28;20258;-63
2023/08/19 04:10:53;;;;;;;5.82;4.57;;;;;;;;;;5032791;28;20204;-62
2023/08/19 04:13:20;;;;;;;5.63;4.40;;;;;;;;;;5026645;28;20201;-62
2023/08/19 04:15:47;;;;;;;4.38;3.97;;;;;;;;;;5025538;28;20215;-62
2023/08/19 04:18:15;;;;;;;5.28;4.72;;;;;;;;;;5023456;28;20205;-62
2023/08/19 04:20:43;;;;;;;7.63;4.22;;;;;;;;;;5028109;28;20210;-62
2023/08/19 04:23:10;;;;;;;6.60;4.72;;;;;;;;;;5025372;28;20204;-62
2023/08/19 04:25:39;;;;;;;5.00;4.50;;;;;;;;;;5018815;28;20211;-63
2023/08/19 04:28:06;;;;;;;4.45;4.15;;;;;;;;;;5022739;28;20208;-61
2023/08/19 04:30:34;;;;;;;4.63;4.32;;;;;;;;;;5023501;28;20224;-62
2023/08/19 04:33:01;;;;;;;5.15;4.45;;;;;;;;;;5030488;28;20207;-62
2023/08/19 04:35:29;;;;;;;8.18;4.65;;;;;;;;;;5028222;28;20193;-62
2023/08/19 04:37:56;;;;;;;5.93;4.22;;;;;;;;;;5022299;28;20540;-62
2023/08/19 04:40:24;;;;;;;6.30;4.70;;;;;;;;;;5018021;28;20201;-62
2023/08/19 04:42:51;;;;;;;6.55;4.38;;;;;;;;;;5018289;28;20214;-62
2023/08/19 04:45:18;;;;;;;5.70;4.90;;;;;;;;;;5022959;28;20211;-62
2023/08/19 04:47:45;;;;;;;7.38;4.90;;;;;;;;;;5025258;28;20193;-62
2023/08/19 04:50:12;;;;;;;4.85;4.28;;;;;;;;;;5018749;28;20217;-62
2023/08/19 04:52:41;;;;;;;5.25;4.50;;;;;;;;;;5026984;28;20295;-62
2023/08/19 04:55:08;;;;;;;4.60;4.20;;;;;;;;;;5024442;28;20204;-62
2023/08/19 04:57:35;;;;;;;10.70;4.45;;;;;;;;;;5021161;28;20321;-63
2023/08/19 05:00:03;;;;;;;6.43;4.07;;;;;;;;;;5021479;28;20200;-63
2023/08/19 05:02:31;;;;;;;5.07;4.40;;;;;;;;;;5022420;28;20236;-62
2023/08/19 05:04:58;;;;;;;6.90;4.35;;;;;;;;;;5027962;28;20215;-63
2023/08/19 05:07:25;;;;;;;4.32;3.70;;;;;;;;;;5020389;28;20203;-63
2023/08/19 05:09:53;;;;;;;5.15;4.47;;;;;;;;;;5024201;28;20204;-62
2023/08/19 05:12:22;;;;;;;4.40;3.58;;;;;;;;;;5025984;28;20223;-62
2023/08/19 05:14:50;;;;;;;6.43;4.15;;;;;;;;;;5023035;28;20200;-63
2023/08/19 05:17:17;;;;;;;5.65;3.85;;;;;;;;;;5025308;28;20230;-63
2023/08/19 05:19:44;;;;;;;5.85;4.20;;;;;;;;;;5021777;28;20209;-62
2023/08/19 05:22:12;;;;;;;4.93;3.47;;;;;;;;;;5026691;28;20197;-63
2023/08/19 05:24:39;;;;;;;5.05;4.15;;;;;;;;;;5027542;28;20211;-62
2023/08/19 05:27:07;;;;;;;6.10;3.80;;;;;;;;;;5030157;28;20207;-63
2023/08/19 05:29:35;;;;;;;4.15;3.65;;;;;;;;;;5022768;28;20204;-62
2023/08/19 05:32:03;;;;;;;4.90;3.65;;;;;;;;;;5025346;28;20203;-63
2023/08/19 05:34:30;;;;;;;4.50;3.97;;;;;;;;;;5027131;28;20207;-61
2023/08/19 05:36:57;;;;;;;4.38;3.97;;;;;;;;;;5028724;28;20219;-62
2023/08/19 05:39:24;;;;;;;5.50;3.90;;;;;;;;;;5024136;28;20204;-61
2023/08/19 05:41:51;;;;;;;5.95;4.40;;;;;;;;;;5025067;28;20208;-62
2023/08/19 05:44:20;;;;;;;5.88;4.43;;;;;;;;;;5025342;28;20203;-62
2023/08/19 05:46:47;;;;;;;3.83;3.53;;;;;;;;;;5021757;28;20200;-62
2023/08/19 05:49:14;;;;;;;5.50;3.70;;;;;;;;;;5025042;28;20200;-62
2023/08/19 05:51:41;;;;;;;5.00;4.60;;;;;;;;;;5019327;28;20212;-64
2023/08/19 05:54:08;;;;;;;4.97;3.80;;;;;;;;;;5023274;28;20214;-61
2023/08/19 05:56:36;;;;;;;4.60;4.20;;;;;;;;;;5029009;28;20232;-63
2023/08/19 05:59:03;;;;;;;6.00;4.20;;;;;;;;;;5024910;28;20219;-63
2023/08/19 06:01:31;;;;;;;5.05;4.45;;;;;;;;;;5029593;28;20263;-63
2023/08/19 06:03:58;;;;;;;5.47;4.22;;;;;;;;;;5019164;28;20209;-63
2023/08/19 06:06:26;;;;;;;4.13;3.80;;;;;;;;;;5022011;28;20220;-63
2023/08/19 06:08:53;;;;;;;4.47;4.07;;;;;;;;;;5021954;28;20258;-61
2023/08/19 06:11:21;;;;;;;5.30;3.85;;;;;;;;;;5023278;28;20200;-61
2023/08/19 06:13:49;;;;;;;4.53;4.13;;;;;;;;;;5024333;28;20208;-62
2023/08/19 06:16:17;;;;;;;4.03;3.63;;;;;;;;;;5026970;28;20216;-62
2023/08/19 06:18:45;;;;;;;4.80;4.30;;;;;;;;;;5025871;28;20251;-62
2023/08/19 06:21:13;;;;;;;6.07;4.95;;;;;;;;;;5024397;28;20211;-62
2023/08/19 06:23:40;;;;;;;4.68;4.10;;;;;;;;;;5026058;28;20196;-67
2023/08/19 06:26:07;;;;;;;5.85;4.25;;;;;;;;;;5027144;28;20201;-68
2023/08/19 06:28:35;;;;;;;4.72;4.28;;;;;;;;;;5030380;28;20202;-67
2023/08/19 06:31:02;;;;;;;4.85;4.05;;;;;;;;;;5026550;28;20212;-68
2023/08/19 06:33:29;;;;;;;5.45;4.00;;;;;;;;;;5031325;28;20214;-68
2023/08/19 06:35:59;;;;;;;5.68;3.90;;;;;;;;;;5023936;28;20208;-67
2023/08/19 06:38:28;;;;;;;5.88;4.43;;;;;;;;;;5025013;28;20223;-67
2023/08/19 06:40:57;;;;;;;6.13;4.60;;;;;;;;;;5027245;28;20204;-67
2023/08/19 06:43:26;;;;;;;7.88;4.72;;;;;;;;;;5030158;28;20197;-67
2023/08/19 06:45:54;;;;;;;5.45;4.30;;;;;;;;;;5027399;28;20201;-66
2023/08/19 06:48:22;;;;;;;5.63;4.22;;;;;;;;;;5024225;28;20230;-67
2023/08/19 06:50:50;;;;;;;6.22;4.75;;;;;;;;;;5022827;28;20287;-66
2023/08/19 06:53:19;;;;;;;4.95;4.20;;;;;;;;;;5025369;28;20293;-66
2023/08/19 06:55:49;;;;;;;4.70;3.85;;;;;;;;;;5020207;28;20250;-66
2023/08/19 06:58:20;;;;;;;9.68;5.25;;;;;;;;;;5026154;28;20212;-67
2023/08/19 07:00:48;;;;;;;5.68;4.20;;;;;;;;;;5029574;28;20236;-67
2023/08/19 07:03:16;;;;;;;7.60;3.80;;;;;;;;;;5028483;28;20211;-67
2023/08/19 07:05:44;;;;;;;5.22;4.30;;;;;;;;;;5026612;28;20215;-67
2023/08/19 07:08:14;;;;;;;8.13;4.50;;;;;;;;;;5023633;28;20208;-65
2023/08/19 07:10:44;;;;;;;5.18;4.43;;;;;;;;;;5026277;28;20316;-66
2023/08/19 07:13:11;;;;;;;5.97;4.35;;;;;;;;;;5018674;28;20312;-66
2023/08/19 07:15:40;;;;;;;7.90;5.30;;;;;;;;;;5023370;28;20204;-67
2023/08/19 07:18:09;;;;;;;5.05;4.55;;;;;;;;;;5018628;28;20252;-67
2023/08/19 07:20:37;;;;;;;7.60;4.82;;;;;;;;;;5029284;28;20208;-67
2023/08/19 07:23:05;;;;;;;5.57;4.20;;;;;;;;;;5026080;28;20196;-67
2023/08/19 07:25:33;;;;;;;7.13;4.60;;;;;;;;;;5019385;28;20197;-66
2023/08/19 07:28:04;;;;;;;6.53;4.93;;;;;;;;;;5026709;28;20200;-67
2023/08/19 07:30:32;;;;;;;7.40;4.90;;;;;;;;;;5026207;28;20536;-69
2023/08/19 07:32:59;;;;;;;5.82;4.15;;;;;;;;;;5021113;28;20488;-62
2023/08/19 07:35:27;;;;;;;8.50;4.80;;;;;;;;;;5028087;28;20247;-62
2023/08/19 07:37:54;;;;;;;5.80;4.50;;;;;;;;;;5025184;28;20224;-63
2023/08/19 07:40:21;;;;;;;5.88;4.28;;;;;;;;;;5018605;28;20240;-64
2023/08/19 07:42:49;;;;;;;5.28;4.78;;;;;;;;;;5022303;28;20299;-63
2023/08/19 07:45:17;;;;;;;6.15;5.18;;;;;;;;;;5026089;28;20204;-62
2023/08/19 07:47:44;;;;;;;5.15;4.65;;;;;;;;;;5022536;28;20196;-64
2023/08/19 07:50:12;;;;;;;6.15;5.55;;;;;;;;;;5022368;28;20204;-63
2023/08/19 07:52:39;;;;;;;6.80;5.18;;;;;;;;;;5020802;28;20215;-63
2023/08/19 07:55:07;;;;;;;6.90;4.82;;;;;;;;;;5026852;28;20203;-63
2023/08/19 07:57:34;;;;;;;7.13;4.82;;;;;;;;;;5030966;28;20257;-64
2023/08/19 08:00:01;;;;;;;7.32;4.45;;;;;;;;;;5032075;28;20206;-63
2023/08/19 08:02:30;;;;;;;9.18;4.93;;;;;;;;;;5026222;28;20300;-65
2023/08/19 08:04:58;;;;;;;7.65;5.57;;;;;;;;;;5021716;28;20207;-63
2023/08/19 08:07:26;;;;;;;9.00;5.20;;;;;;;;;;5027751;28;20228;-63
2023/08/19 08:09:53;;;;;;;8.25;4.85;;;;;;;;;;5026442;28;20251;-63
2023/08/19 08:12:20;;;;;;;5.65;5.10;;;;;;;;;;5024213;28;20204;-61
2023/08/19 08:14:47;;;;;;;5.72;4.90;;;;;;;;;;5023467;28;20220;-61
2023/08/19 08:17:14;;;;;;;7.70;5.43;;;;;;;;;;5026213;28;20208;-61
2023/08/19 08:19:43;;;;;;;7.40;4.68;;;;;;;;;;5022297;28;20208;-61
2023/08/19 08:22:10;;;;;;;9.73;5.00;;;;;;;;;;5024174;28;20210;-61
2023/08/19 08:24:37;;;;;;;5.13;4.63;;;;;;;;;;5027130;28;20209;-60
2023/08/19 08:27:04;;;;;;;7.30;4.60;;;;;;;;;;5023956;28;20208;-61
2023/08/19 08:29:32;;;;;;;5.90;5.07;;;;;;;;;;5019712;28;20210;-61
2023/08/19 08:31:59;;;;;;;5.07;4.55;;;;;;;;;;5023060;28;20211;-61
2023/08/19 08:34:26;;;;;;;5.95;4.25;;;;;;;;;;5026831;28;20199;-61
2023/08/19 08:36:54;;;;;;;6.00;4.13;;;;;;;;;;5023145;28;20204;-60
2023/08/19 08:39:22;;;;;;;6.53;4.00;;;;;;;;;;5027189;28;20232;-61
2023/08/19 08:41:49;;;;;;;6.65;4.00;;;;;;;;;;5020234;28;20208;-62
2023/08/19 08:44:17;;;;;;;5.45;3.88;;;;;;;;;;5020486;28;20208;-62
2023/08/19 08:46:45;;;;;;;4.25;3.85;;;;;;;;;;5021011;28;20204;-61
2023/08/19 08:49:12;;;;;;;7.60;3.60;;;;;;;;;;5027890;28;20204;-61
2023/08/19 08:51:40;;;;;;;4.78;3.90;;;;;;;;;;5029905;28;20212;-62
2023/08/19 08:54:08;;;;;;;4.78;3.45;;;;;;;;;;5026120;28;20201;-61
2023/08/19 08:56:35;;;;;;;5.60;3.47;;;;;;;;;;5025465;28;20212;-61
2023/08/19 08:59:03;;;;;;;4.43;3.33;;;;;;;;;;5030247;28;20220;-62
2023/08/19 09:01:30;;;;;;;8.95;4.10;;;;;;;;;;5038705;28;20232;-61
2023/08/19 09:04:03;;;;;;;7.57;3.88;;;;;;;;;;5028112;28;20200;-62
2023/08/19 09:06:31;;;;;;;4.00;3.60;;;;;;;;;;5022841;28;20219;-61
2023/08/19 09:09:00;;;;;;;6.07;3.42;;;;;;;;;;5020361;28;20211;-61
2023/08/19 09:11:29;;;;;;;7.88;3.80;;;;;;;;;;5021198;28;20205;-62
2023/08/19 09:13:58;;;;;;;5.55;4.00;;;;;;;;;;5034387;28;20200;-62
2023/08/19 09:16:25;;;;;;;4.93;3.90;;;;;;;;;;5030975;28;20195;-61
2023/08/19 09:18:53;;;;;;;5.22;3.63;;;;;;;;;;5020317;28;20227;-61
2023/08/19 09:21:20;;;;;;;5.82;4.00;;;;;;;;;;5026843;28;20200;-61
2023/08/19 09:23:47;;;;;;;7.22;4.05;;;;;;;;;;5030742;28;20215;-61
2023/08/19 09:26:14;;;;;;;5.85;3.80;;;;;;;;;;5026581;28;20210;-61
2023/08/19 09:28:43;;;;;;;7.93;4.40;;;;;;;;;;5025449;28;20215;-62
2023/08/19 09:31:18;;;;;;;6.35;3.88;;;;;;;;;;5029911;28;20211;-61
2023/08/19 09:33:47;;;;;;;4.45;3.75;;;;;;;;;;5025554;28;20277;-62
2023/08/19 09:36:14;;;;;;;6.13;3.85;;;;;;;;;;5023268;28;20205;-61
2023/08/19 09:38:42;;;;;;;6.65;4.10;;;;;;;;;;5024780;28;20247;-61
2023/08/19 09:41:10;;;;;;;6.13;3.80;;;;;;;;;;5018575;28;20220;-61
2023/08/19 09:43:39;;;;;;;4.10;3.70;;;;;;;;;;5022723;28;20215;-62
2023/08/19 09:46:08;;;;;;;5.15;3.83;;;;;;;;;;5027563;28;20196;-61
2023/08/19 09:48:36;;;;;;;5.95;4.43;;;;;;;;;;5022675;28;20270;-62
2023/08/19 09:51:08;;;;;;;6.20;3.85;;;;;;;;;;5020967;28;20218;-62
2023/08/19 09:53:39;;;;;;;5.93;3.80;;;;;;;;;;5015657;28;20213;-65
2023/08/19 09:56:06;;;;;;;9.10;4.00;;;;;;;;;;5022571;28;20200;-66
2023/08/19 09:58:36;;;;;;;6.55;4.97;;;;;;;;;;5022903;28;20218;-67
2023/08/19 10:01:03;;;;;;;7.43;4.50;;;;;;;;;;5018490;28;20267;-66
2023/08/19 10:03:32;;;;;;;6.85;4.80;;;;;;;;;;5016012;28;20327;-66
2023/08/19 10:06:02;;;;;;;7.03;4.72;;;;;;;;;;5014674;28;20227;-66
2023/08/19 10:08:31;;;;;;;8.02;4.47;;;;;;;;;;5019048;28;20213;-66
2023/08/19 10:10:58;;;;;;;5.40;4.10;;;;;;;;;;5020637;28;20207;-66
2023/08/19 10:13:26;;;;;;;5.47;3.88;;;;;;;;;;5023030;28;20227;-66
2023/08/19 10:15:56;;;;;;;4.78;4.20;;;;;;;;;;5023024;28;20200;-67
2023/08/19 10:18:24;;;;;;;5.25;4.05;;;;;;;;;;5017631;28;20220;-67
2023/08/19 10:20:55;;;;;;;5.57;3.90;;;;;;;;;;5014731;28;20212;-67
2023/08/19 10:23:24;;;;;;;7.03;4.00;;;;;;;;;;5019885;28;20204;-66
2023/08/19 10:25:51;;;;;;;6.38;3.90;;;;;;;;;;5019539;28;20489;-66
2023/08/19 10:28:24;;;;;;;6.47;3.90;;;;;;;;;;5014622;28;20203;-66
2023/08/19 10:31:06;;;;;;;6.35;3.90;;;;;;;;;;5021454;28;20200;-66
2023/08/19 10:33:39;;;;;;;5.15;3.80;;;;;;;;;;5019474;28;20203;-65
2023/08/19 10:36:13;;;;;;;6.55;4.10;;;;;;;;;;5023721;28;20216;-66
2023/08/19 10:38:45;;;;;;;5.55;4.10;;;;;;;;;;5027465;28;20315;-66
2023/08/19 10:41:20;;;;;;;8.40;4.43;;;;;;;;;;5022228;28;20205;-67
2023/08/19 10:43:48;;;;;;;4.78;3.88;;;;;;;;;;5021810;28;20204;-67
2023/08/19 10:46:18;;;;;;;3.95;3.63;;;;;;;;;;5027114;28;20204;-67
2023/08/19 10:48:50;;;;;;;5.47;3.90;;;;;;;;;;5022849;28;20253;-67
2023/08/19 10:51:20;;;;;;;4.72;4.32;;;;;;;;;;5017583;28;20301;-67
2023/08/19 10:53:50;;;;;;;11.15;4.15;;;;;;;;;;5016906;28;20228;-66
2023/08/19 10:56:20;;;;;;;6.05;3.90;;;;;;;;;;5022448;28;20216;-66
2023/08/19 10:58:49;;;;;;;4.55;3.67;;;;;;;;;;5014999;28;20228;-67
2023/08/19 11:01:23;;;;;;;6.43;4.07;;;;;;;;;;5015779;28;20243;-66
2023/08/19 11:03:50;;;;;;;4.68;3.80;;;;;;;;;;5016442;28;20290;-66
2023/08/19 11:06:17;;;;;;;4.13;3.72;;;;;;;;;;5020011;28;20763;-66
2023/08/19 11:08:46;;;;;;;5.63;4.07;;;;;;;;;;5017774;28;20200;-66
2023/08/19 11:11:17;;;;;;;6.32;4.25;;;;;;;;;;5022219;28;20209;-67
2023/08/19 11:13:44;;;;;;;5.20;4.13;;;;;;;;;;5019005;28;20208;-66
2023/08/19 11:16:11;;;;;;;7.43;4.32;;;;;;;;;;5019422;28;20251;-67
2023/08/19 11:18:42;;;;;;;5.70;4.43;;;;;;;;;;5024350;28;20228;-67
2023/08/19 11:21:09;;;;;;;4.93;4.00;;;;;;;;;;5016986;28;20204;-67
2023/08/19 11:23:36;;;;;;;6.13;3.80;;;;;;;;;;5022405;28;20262;-67
2023/08/19 11:26:05;;;;;;;6.88;4.00;;;;;;;;;;5019256;28;20204;-68
2023/08/19 11:28:32;;;;;;;7.88;4.32;;;;;;;;;;5023104;28;20197;-69
2023/08/19 11:31:00;;;;;;;5.57;4.15;;;;;;;;;;5022963;28;20223;-68
2023/08/19 11:33:30;;;;;;;6.30;3.80;;;;;;;;;;5025473;28;20211;-68
2023/08/19 11:35:57;;;;;;;9.32;4.35;;;;;;;;;;5019684;28;20200;-68
2023/08/19 11:38:25;;;;;;;5.82;4.15;;;;;;;;;;5020651;28;20238;-67
2023/08/19 11:40:52;;;;;;;6.43;3.90;;;;;;;;;;5026249;28;20214;-66
2023/08/19 11:43:25;;;;;;;5.32;4.13;;;;;;;;;;5023451;28;20261;-66
2023/08/19 11:45:54;;;;;;;5.65;4.10;;;;;;;;;;5024204;28;20196;-66
2023/08/19 11:48:22;;;;;;;5.55;3.80;;;;;;;;;;5022529;28;20209;-67
2023/08/19 11:50:50;;;;;;;7.40;4.15;;;;;;;;;;5035562;28;20219;-67
2023/08/19 11:53:24;;;;;;;4.40;3.97;;;;;;;;;;5033068;28;20296;-66
2023/08/19 11:55:56;;;;;;;4.80;4.10;;;;;;;;;;5020157;28;20200;-66
2023/08/19 11:58:28;;;;;;;5.70;4.22;;;;;;;;;;5024700;28;20200;-66
2023/08/19 12:00:56;;;;;;;6.55;4.50;;;;;;;;;;5026779;28;20246;-66
2023/08/19 12:03:24;;;;;;;6.72;4.50;;;;;;;;;;5025135;28;20230;-67
2023/08/19 12:05:53;;;;;;;8.23;4.40;;;;;;;;;;5028157;28;20224;-67
2023/08/19 12:08:33;;;;;;;6.88;4.80;;;;;;;;;;5023875;28;20208;-67
2023/08/19 12:11:01;;;;;;;4.60;3.97;;;;;;;;;;5028926;28;20298;-66
2023/08/19 12:13:31;;;;;;;8.40;4.30;;;;;;;;;;5020969;28;20204;-62
2023/08/19 12:15:58;;;;;;;6.07;4.57;;;;;;;;;;5025533;28;20234;-63
2023/08/19 12:18:26;;;;;;;5.20;4.53;;;;;;;;;;5026266;28;20205;-62
2023/08/19 12:20:56;;;;;;;5.80;4.60;;;;;;;;;;5020850;28;20279;-62
2023/08/19 12:23:24;;;;;;;5.72;4.28;;;;;;;;;;5025349;28;20208;-63
2023/08/19 12:25:51;;;;;;;10.93;4.72;;;;;;;;;;5023362;28;20231;-63
2023/08/19 12:28:19;;;;;;;5.28;4.10;;;;;;;;;;5029665;28;20196;-63
2023/08/19 12:30:49;;;;;;;6.25;4.45;;;;;;;;;;5022477;28;20232;-62
2023/08/19 12:33:16;;;;;;;6.15;4.70;;;;;;;;;;5021182;28;20215;-62
2023/08/19 12:35:46;;;;;;;9.07;4.97;;;;;;;;;;5018097;28;20254;-63
2023/08/19 12:38:18;;;;;;;5.63;4.38;;;;;;;;;;5029884;28;20243;-63
2023/08/19 12:40:46;;;;;;;7.25;3.97;;;;;;;;;;5026814;28;20234;-63
2023/08/19 12:43:15;;;;;;;6.18;4.85;;;;;;;;;;5033667;28;20196;-63
2023/08/19 12:45:43;;;;;;;5.95;4.38;;;;;;;;;;5019005;28;20205;-63
2023/08/19 12:48:12;;;;;;;7.70;4.85;;;;;;;;;;5024185;28;20208;-63
2023/08/19 12:50:39;;;;;;;6.07;4.57;;;;;;;;;;5024154;28;20204;-62
2023/08/19 12:53:08;;;;;;;8.02;4.68;;;;;;;;;;5026356;28;20200;-62
2023/08/19 12:55:36;;;;;;;5.45;4.95;;;;;;;;;;5022604;28;20213;-62
2023/08/19 12:58:04;;;;;;;5.82;4.43;;;;;;;;;;5029711;28;20207;-63
2023/08/19 13:00:31;;;;;;;6.78;4.63;;;;;;;;;;5019295;28;20235;-62
2023/08/19 13:03:00;;;;;;;4.90;4.30;;;;;;;;;;5024453;28;20220;-62
2023/08/19 13:05:29;;;;;;;8.77;4.75;;;;;;;;;;5022099;28;20257;-63
2023/08/19 13:07:58;;;;;;;4.80;4.35;;;;;;;;;;5030370;28;20212;-63
2023/08/19 13:10:25;;;;;;;6.85;4.80;;;;;;;;;;5022275;28;20290;-62
2023/08/19 13:12:52;;;;;;;4.60;4.15;;;;;;;;;;5025573;28;20211;-64
2023/08/19 13:15:20;;;;;;;5.72;4.40;;;;;;;;;;5022289;28;20299;-62
2023/08/19 13:17:48;;;;;;;6.97;3.95;;;;;;;;;;5025237;28;20268;-62
2023/08/19 13:20:18;;;;;;;6.68;4.30;;;;;;;;;;5020912;28;20224;-62
2023/08/19 13:22:47;;;;;;;6.10;4.22;;;;;;;;;;5025468;28;20235;-66
2023/08/19 13:25:14;;;;;;;5.70;3.97;;;;;;;;;;5021847;28;20300;-66
2023/08/19 13:27:42;;;;;;;4.60;4.13;;;;;;;;;;5024353;28;20204;-66
2023/08/19 13:30:12;;;;;;;7.43;3.70;;;;;;;;;;5024118;28;20196;-66
2023/08/19 13:32:42;;;;;;;5.72;3.35;;;;;;;;;;5027994;28;20213;-67
2023/08/19 13:35:15;;;;;;;5.28;3.90;;;;;;;;;;5023794;28;20305;-64
2023/08/19 13:37:42;;;;;;;6.53;4.07;;;;;;;;;;5029477;28;20342;-64
2023/08/19 13:40:11;;;;;;;6.63;4.40;;;;;;;;;;5020141;28;20259;-64
2023/08/19 13:42:39;;;;;;;8.15;3.75;;;;;;;;;;5028152;28;20212;-65
2023/08/19 13:45:07;;;;;;;5.25;4.05;;;;;;;;;;5022506;28;20200;-66
2023/08/19 13:47:34;;;;;;;8.48;3.83;;;;;;;;;;5024756;28;20220;-65
2023/08/19 13:50:05;;;;;;;5.75;4.05;;;;;;;;;;5022040;28;20264;-66
2023/08/19 13:52:36;;;;;;;6.45;4.10;;;;;;;;;;5022136;28;20208;-65
2023/08/19 13:55:04;;;;;;;6.00;4.63;;;;;;;;;;5024479;28;21759;-65
2023/08/19 13:57:32;;;;;;;6.45;4.15;;;;;;;;;;5021777;28;20207;-66
2023/08/19 14:00:00;;;;;;;5.25;4.30;;;;;;;;;;5020458;28;20227;-65
2023/08/19 14:02:27;;;;;;;5.65;4.28;;;;;;;;;;5022622;28;20203;-65
2023/08/19 14:04:54;;;;;;;6.32;4.43;;;;;;;;;;5018876;28;20227;-65
2023/08/19 14:07:21;;;;;;;4.53;4.13;;;;;;;;;;5025374;28;20212;-66
2023/08/19 14:09:48;;;;;;;5.78;4.45;;;;;;;;;;5018174;28;20200;-66
2023/08/19 14:12:16;;;;;;;7.45;4.68;;;;;;;;;;5020625;28;20208;-66
2023/08/19 14:14:44;;;;;;;7.03;4.80;;;;;;;;;;5030720;28;20207;-66
2023/08/19 14:17:16;;;;;;;5.47;4.22;;;;;;;;;;5018118;28;20213;-65
2023/08/19 14:19:45;;;;;;;9.32;4.32;;;;;;;;;;5019947;28;20315;-66
2023/08/19 14:22:14;;;;;;;4.63;4.00;;;;;;;;;;5020490;28;20200;-66
2023/08/19 14:24:45;;;;;;;5.97;4.10;;;;;;;;;;5024010;28;20204;-66
2023/08/19 14:27:16;;;;;;;7.65;4.55;;;;;;;;;;5013653;28;20204;-65
2023/08/19 14:29:45;;;;;;;4.82;4.28;;;;;;;;;;5016960;28;20290;-65
2023/08/19 14:32:14;;;;;;;6.22;3.88;;;;;;;;;;5022396;28;20287;-66
2023/08/19 14:34:48;;;;;;;7.15;3.92;;;;;;;;;;5028967;28;20231;-63
2023/08/19 14:37:16;;;;;;;5.57;3.72;;;;;;;;;;5023234;28;20204;-62
2023/08/19 14:39:43;;;;;;;6.10;3.60;;;;;;;;;;5014493;28;20258;-62
2023/08/19 14:42:10;;;;;;;3.83;3.45;;;;;;;;;;5024529;28;20205;-62
2023/08/19 14:44:37;;;;;;;7.05;3.20;;;;;;;;;;5021978;28;20218;-62
2023/08/19 14:47:07;;;;;;;4.78;3.10;;;;;;;;;;5020369;28;20234;-61
2023/08/19 14:49:34;;;;;;;4.28;2.67;;;;;;;;;;5027855;28;20200;-62